createdAt,value
2018-12-17T00:01:20.192Z,4.56
2018-12-17T00:03:47.897Z,4.56
2018-12-17T00:06:15.615Z,4.57
2018-12-17T00:08:43.498Z,4.57
2018-12-17T00:11:11.513Z,4.53
2018-12-17T00:13:39.248Z,4.53
2018-12-17T00:16:06.986Z,4.54
2018-12-17T00:18:34.849Z,4.53
2018-12-17T00:21:02.696Z,4.56
2018-12-17T00:23:30.408Z,4.55
2018-12-17T00:25:58.107Z,4.51
2018-12-17T00:28:25.840Z,4.49
2018-12-17T00:30:53.592Z,4.47
2018-12-17T00:33:21.366Z,4.46
2018-12-17T00:35:49.076Z,4.46
2018-12-17T00:38:16.765Z,4.42
2018-12-17T00:40:44.480Z,4.46
2018-12-17T00:43:12.224Z,4.46
2018-12-17T00:45:40.008Z,4.47
2018-12-17T00:48:07.747Z,4.47
2018-12-17T00:50:35.448Z,4.48
2018-12-17T00:53:03.302Z,4.42
2018-12-17T00:55:31.081Z,4.42
2018-12-17T00:57:58.888Z,4.38
2018-12-17T01:00:26.658Z,4.41
2018-12-17T01:02:54.374Z,4.42
2018-12-17T01:05:22.151Z,4.48
2018-12-17T01:07:49.859Z,4.51
2018-12-17T01:10:17.608Z,4.53
2018-12-17T01:12:45.316Z,4.45
2018-12-17T01:15:13.057Z,4.41
2018-12-17T01:17:40.820Z,4.32
2018-12-17T01:20:08.737Z,4.38
2018-12-17T01:22:36.478Z,4.30
2018-12-17T01:25:04.422Z,4.37
2018-12-17T01:27:32.114Z,4.43
2018-12-17T01:29:59.864Z,4.41
2018-12-17T01:32:27.652Z,4.42
2018-12-17T01:34:56.033Z,4.46
2018-12-17T01:37:23.748Z,4.45
2018-12-17T01:39:51.576Z,4.49
2018-12-17T01:42:19.271Z,4.50
2018-12-17T01:44:47.040Z,4.48
2018-12-17T01:47:14.736Z,4.49
2018-12-17T01:49:42.488Z,4.53
2018-12-17T01:52:10.186Z,4.58
2018-12-17T01:54:37.929Z,4.57
2018-12-17T01:57:05.733Z,4.59
2018-12-17T01:59:33.517Z,4.62
2018-12-17T02:02:01.282Z,4.62
2018-12-17T02:04:29.037Z,4.62
2018-12-17T02:06:56.821Z,4.61
2018-12-17T02:09:24.632Z,4.51
2018-12-17T02:11:52.406Z,4.45
2018-12-17T02:14:20.274Z,4.40
2018-12-17T02:16:48.092Z,4.42
2018-12-17T02:19:15.855Z,4.34
2018-12-17T02:21:43.600Z,4.43
2018-12-17T02:24:11.337Z,4.49
2018-12-17T02:26:39.126Z,4.54
2018-12-17T02:29:06.909Z,4.55
2018-12-17T02:31:34.693Z,4.56
2018-12-17T02:34:02.493Z,4.54
2018-12-17T02:36:30.237Z,4.55
2018-12-17T02:38:58.023Z,4.50
2018-12-17T02:41:31.691Z,4.29
2018-12-17T02:43:59.682Z,4.23
2018-12-17T02:46:27.429Z,4.34
2018-12-17T02:48:55.148Z,4.42
2018-12-17T02:51:22.937Z,4.38
2018-12-17T02:53:50.636Z,4.18
2018-12-17T02:56:18.450Z,4.31
2018-12-17T02:58:47.024Z,4.28
2018-12-17T03:01:14.796Z,4.37
2018-12-17T03:03:42.557Z,4.44
2018-12-17T03:06:10.352Z,4.41
2018-12-17T03:08:38.164Z,4.41
2018-12-17T03:11:05.936Z,4.31
2018-12-17T03:13:39.315Z,4.35
2018-12-17T03:16:07.081Z,4.14
2018-12-17T03:18:34.866Z,4.25
2018-12-17T03:21:02.766Z,4.27
2018-12-17T03:23:30.511Z,4.31
2018-12-17T03:25:58.334Z,4.40
2018-12-17T03:28:26.055Z,4.42
2018-12-17T03:30:53.775Z,4.29
2018-12-17T03:33:21.620Z,4.19
2018-12-17T03:35:49.391Z,4.31
2018-12-17T03:38:17.082Z,4.30
2018-12-17T03:40:44.905Z,4.31
2018-12-17T03:43:12.745Z,4.31
2018-12-17T03:45:40.490Z,4.37
2018-12-17T03:48:08.256Z,4.36
2018-12-17T03:50:36.100Z,4.28
2018-12-17T03:53:03.925Z,4.29
2018-12-17T03:55:31.612Z,4.25
2018-12-17T03:57:59.357Z,4.24
2018-12-17T04:00:27.152Z,4.00
2018-12-17T04:02:54.886Z,3.98
2018-12-17T04:05:22.648Z,4.04
2018-12-17T04:07:50.485Z,3.86
2018-12-17T04:10:18.205Z,3.89
2018-12-17T04:12:46.872Z,3.89
2018-12-17T04:15:14.684Z,3.89
2018-12-17T04:17:42.395Z,3.87
2018-12-17T04:20:10.119Z,4.03
2018-12-17T04:22:37.876Z,4.10
2018-12-17T04:25:07.832Z,4.08
2018-12-17T04:27:35.589Z,4.15
2018-12-17T04:30:03.961Z,4.12
2018-12-17T04:32:31.665Z,4.08
2018-12-17T04:34:59.389Z,3.81
2018-12-17T04:37:27.136Z,3.70
2018-12-17T04:39:54.964Z,3.89
2018-12-17T04:42:22.617Z,3.81
2018-12-17T04:44:50.319Z,3.83
2018-12-17T04:47:18.018Z,3.79
2018-12-17T04:49:45.743Z,3.61
2018-12-17T04:52:14.087Z,3.60
2018-12-17T04:54:42.004Z,3.61
2018-12-17T04:57:09.715Z,3.66
2018-12-17T04:59:37.517Z,3.78
2018-12-17T05:02:05.571Z,3.86
2018-12-17T05:04:33.437Z,3.66
2018-12-17T05:07:01.138Z,3.77
2018-12-17T05:09:28.878Z,3.82
2018-12-17T05:11:56.632Z,3.61
2018-12-17T05:14:24.319Z,3.66
2018-12-17T05:16:52.066Z,3.76
2018-12-17T05:19:19.858Z,3.86
2018-12-17T05:21:47.618Z,3.94
2018-12-17T05:24:15.412Z,3.96
2018-12-17T05:26:43.196Z,3.87
2018-12-17T05:29:10.920Z,3.93
2018-12-17T05:31:38.973Z,3.93
2018-12-17T05:34:06.741Z,3.81
2018-12-17T05:36:34.471Z,3.90
2018-12-17T05:39:02.531Z,3.96
2018-12-17T05:41:30.273Z,3.98
2018-12-17T05:43:58.067Z,4.07
2018-12-17T05:46:25.845Z,4.10
2018-12-17T05:48:53.569Z,4.00
2018-12-17T05:51:21.322Z,4.00
2018-12-17T05:53:50.035Z,3.95
2018-12-17T05:56:18.556Z,4.09
2018-12-17T05:58:46.352Z,4.14
2018-12-17T06:01:14.107Z,4.06
2018-12-17T06:03:41.864Z,4.00
2018-12-17T06:06:09.665Z,3.94
2018-12-17T06:08:37.909Z,3.81
2018-12-17T06:11:05.639Z,3.94
2018-12-17T06:13:33.429Z,3.96
2018-12-17T06:16:01.157Z,4.03
2018-12-17T06:18:28.905Z,4.01
2018-12-17T06:20:56.931Z,3.83
2018-12-17T06:23:24.691Z,3.72
2018-12-17T06:25:52.445Z,3.83
2018-12-17T06:28:20.180Z,3.86
2018-12-17T06:30:48.133Z,3.81
2018-12-17T06:33:15.896Z,3.77
2018-12-17T06:35:43.712Z,3.82
2018-12-17T06:38:11.414Z,3.82
2018-12-17T06:40:39.162Z,3.94
2018-12-17T06:43:07.505Z,3.92
2018-12-17T06:45:35.209Z,3.66
2018-12-17T06:48:03.208Z,3.85
2018-12-17T06:50:30.935Z,3.86
2018-12-17T06:52:59.119Z,3.65
2018-12-17T06:55:26.869Z,3.74
2018-12-17T06:57:54.890Z,3.61
2018-12-17T07:00:22.637Z,3.73
2018-12-17T07:02:50.378Z,3.83
2018-12-17T07:05:18.148Z,3.75
2018-12-17T07:07:45.905Z,3.76
2018-12-17T07:10:13.604Z,3.83
2018-12-17T07:12:41.314Z,3.85
2018-12-17T07:15:09.689Z,3.80
2018-12-17T07:17:37.404Z,3.82
2018-12-17T07:20:06.443Z,3.93
2018-12-17T07:22:34.156Z,3.77
2018-12-17T07:25:01.934Z,3.89
2018-12-17T07:27:33.698Z,3.87
2018-12-17T07:30:01.742Z,3.85
2018-12-17T07:32:30.554Z,3.87
2018-12-17T07:34:58.430Z,3.94
2018-12-17T07:37:26.298Z,4.02
2018-12-17T07:39:54.105Z,4.07
2018-12-17T07:42:22.219Z,3.98
2018-12-17T07:44:50.070Z,3.97
2018-12-17T07:47:18.019Z,4.03
2018-12-17T07:49:46.550Z,3.99
2018-12-17T07:52:14.306Z,3.98
2018-12-17T07:54:42.074Z,3.76
2018-12-17T07:57:10.530Z,3.81
2018-12-17T07:59:38.253Z,3.99
2018-12-17T08:02:06.114Z,3.98
2018-12-17T08:04:33.838Z,3.75
2018-12-17T08:07:01.548Z,3.92
2018-12-17T08:09:29.329Z,4.02
2018-12-17T08:11:57.145Z,4.09
2018-12-17T08:14:24.888Z,3.83
2018-12-17T08:16:53.180Z,3.89
2018-12-17T08:19:20.913Z,4.01
2018-12-17T08:21:48.698Z,4.05
2018-12-17T08:24:16.412Z,4.11
2018-12-17T08:26:44.107Z,4.18
2018-12-17T08:29:12.121Z,4.22
2018-12-17T08:31:39.858Z,4.16
2018-12-17T08:34:07.861Z,3.97
2018-12-17T08:36:35.616Z,3.82
2018-12-17T08:39:04.955Z,4.06
2018-12-17T08:41:32.683Z,4.03
2018-12-17T08:44:00.433Z,3.98
2018-12-17T08:46:30.407Z,4.09
2018-12-17T08:48:58.179Z,4.08
2018-12-17T08:51:25.989Z,3.90
2018-12-17T08:53:53.724Z,3.96
2018-12-17T08:56:21.502Z,4.21
2018-12-17T08:58:49.278Z,4.24
2018-12-17T09:01:17.006Z,4.15
2018-12-17T09:03:44.765Z,4.12
2018-12-17T09:06:12.717Z,4.23
2018-12-17T09:08:40.618Z,4.20
2018-12-17T09:11:08.349Z,4.17
2018-12-17T09:13:36.109Z,4.28
2018-12-17T09:16:03.945Z,4.22
2018-12-17T09:18:31.680Z,4.29
2018-12-17T09:20:59.379Z,4.31
2018-12-17T09:23:27.283Z,4.42
2018-12-17T09:25:54.978Z,4.39
2018-12-17T09:28:22.726Z,4.50
2018-12-17T09:30:50.551Z,4.34
2018-12-17T09:33:18.416Z,4.34
2018-12-17T09:35:46.138Z,4.32
2018-12-17T09:38:13.882Z,4.41
2018-12-17T09:40:41.639Z,4.46
2018-12-17T09:43:09.477Z,4.47
2018-12-17T09:45:37.224Z,4.29
2018-12-17T09:48:04.953Z,4.28
2018-12-17T09:50:32.701Z,4.51
2018-12-17T09:53:00.474Z,4.53
2018-12-17T09:55:28.239Z,4.65
2018-12-17T09:57:55.969Z,4.53
2018-12-17T10:00:25.587Z,4.44
2018-12-17T10:02:53.465Z,4.46
2018-12-17T10:05:21.169Z,4.64
2018-12-17T10:07:48.908Z,4.72
2018-12-17T10:10:16.636Z,4.59
2018-12-17T10:12:44.374Z,4.71
2018-12-17T10:15:12.121Z,4.65
2018-12-17T10:17:40.156Z,4.76
2018-12-17T10:20:07.897Z,4.89
2018-12-17T10:22:35.628Z,4.66
2018-12-17T10:25:03.660Z,4.67
2018-12-17T10:27:31.401Z,4.86
2018-12-17T10:29:59.184Z,4.83
2018-12-17T10:32:26.953Z,4.95
2018-12-17T10:34:54.700Z,4.95
2018-12-17T10:37:23.075Z,5.04
2018-12-17T10:39:50.821Z,4.86
2018-12-17T10:42:18.565Z,5.00
2018-12-17T10:44:46.459Z,4.99
2018-12-17T10:47:14.176Z,5.13
2018-12-17T10:49:41.917Z,5.12
2018-12-17T10:52:09.811Z,5.14
2018-12-17T10:54:37.544Z,5.15
2018-12-17T10:57:05.259Z,5.18
2018-12-17T10:59:33.125Z,5.22
2018-12-17T11:02:07.601Z,5.28
2018-12-17T11:04:41.316Z,5.30
2018-12-17T11:07:09.800Z,5.45
2018-12-17T11:09:37.529Z,5.40
2018-12-17T11:12:05.310Z,5.40
2018-12-17T11:14:34.199Z,5.51
2018-12-17T11:17:01.985Z,5.60
2018-12-17T11:19:29.718Z,5.66
2018-12-17T11:21:57.444Z,5.75
2018-12-17T11:24:25.176Z,5.80
2018-12-17T11:26:52.887Z,5.85
2018-12-17T11:29:20.627Z,5.69
2018-12-17T11:31:48.386Z,5.81
2018-12-17T11:34:16.176Z,5.87
2018-12-17T11:36:43.918Z,5.78
2018-12-17T11:39:11.617Z,5.77
2018-12-17T11:41:39.335Z,5.86
2018-12-17T11:44:07.064Z,5.93
2018-12-17T11:46:34.798Z,6.02
2018-12-17T11:49:02.710Z,5.94
2018-12-17T11:51:30.665Z,5.97
2018-12-17T11:53:58.444Z,6.02
2018-12-17T11:56:38.198Z,6.08
2018-12-17T11:59:05.970Z,6.11
2018-12-17T12:01:33.773Z,6.18
2018-12-17T12:04:01.501Z,6.15
2018-12-17T12:06:29.274Z,6.14
2018-12-17T12:08:57.060Z,6.18
2018-12-17T12:11:24.809Z,6.10
2018-12-17T12:13:52.536Z,6.17
2018-12-17T12:16:20.671Z,6.33
2018-12-17T12:18:48.544Z,6.35
2018-12-17T12:21:16.306Z,6.29
2018-12-17T12:23:44.061Z,6.33
2018-12-17T12:26:12.062Z,6.40
2018-12-17T12:28:39.901Z,6.32
2018-12-17T12:31:07.668Z,6.33
2018-12-17T12:33:35.532Z,6.34
2018-12-17T12:36:03.510Z,6.44
2018-12-17T12:38:31.233Z,6.52
2018-12-17T12:40:58.999Z,6.47
2018-12-17T12:43:26.693Z,6.39
2018-12-17T12:45:54.413Z,6.42
2018-12-17T12:48:22.165Z,6.45
2018-12-17T12:50:49.894Z,6.47
2018-12-17T12:53:17.685Z,6.56
2018-12-17T12:55:45.432Z,6.61
2018-12-17T12:58:13.144Z,6.65
2018-12-17T13:00:40.878Z,6.66
2018-12-17T13:03:08.956Z,6.72
2018-12-17T13:05:36.667Z,6.74
2018-12-17T13:08:04.393Z,6.76
2018-12-17T13:10:32.192Z,6.74
2018-12-17T13:12:59.988Z,6.78
2018-12-17T13:15:27.694Z,6.76
2018-12-17T13:17:55.512Z,6.72
2018-12-17T13:20:23.273Z,6.79
2018-12-17T13:22:51.022Z,6.81
2018-12-17T13:25:27.292Z,6.76
2018-12-17T13:27:55.099Z,6.78
2018-12-17T13:30:22.806Z,6.86
2018-12-17T13:32:50.559Z,6.96
2018-12-17T13:35:18.359Z,7.01
2018-12-17T13:37:46.096Z,7.06
2018-12-17T13:40:13.835Z,7.06
2018-12-17T13:42:41.732Z,7.09
2018-12-17T13:45:10.557Z,7.14
2018-12-17T13:47:38.343Z,7.12
2018-12-17T13:50:11.913Z,7.18
2018-12-17T13:52:47.297Z,7.20
2018-12-17T13:55:15.558Z,7.24
2018-12-17T13:57:43.369Z,7.27
2018-12-17T14:00:12.094Z,7.31
2018-12-17T14:02:39.828Z,7.33
2018-12-17T14:05:07.563Z,7.34
2018-12-17T14:07:35.306Z,7.36
2018-12-17T14:10:09.219Z,7.36
2018-12-17T14:12:37.055Z,7.37
2018-12-17T14:15:05.187Z,7.34
2018-12-17T14:17:36.317Z,7.40
2018-12-17T14:20:11.711Z,7.45
2018-12-17T14:22:39.562Z,7.48
2018-12-17T14:25:07.500Z,7.48
2018-12-17T14:27:35.242Z,7.51
2018-12-17T14:30:03.998Z,7.56
2018-12-17T14:32:31.764Z,7.61
2018-12-17T14:34:59.484Z,7.64
2018-12-17T14:37:27.218Z,7.52
2018-12-17T14:39:54.981Z,7.53
2018-12-17T14:42:22.826Z,7.41
2018-12-17T14:44:51.113Z,7.51
2018-12-17T14:47:18.920Z,7.35
2018-12-17T14:49:46.630Z,7.41
2018-12-17T14:52:14.326Z,7.47
2018-12-17T14:54:42.253Z,7.26
2018-12-17T14:57:10.012Z,7.37
2018-12-17T14:59:37.734Z,7.38
2018-12-17T15:02:05.581Z,7.43
2018-12-17T15:04:33.311Z,7.42
2018-12-17T15:07:01.075Z,7.32
2018-12-17T15:09:28.814Z,7.39
2018-12-17T15:11:56.576Z,7.47
2018-12-17T15:14:24.293Z,7.52
2018-12-17T15:16:51.995Z,7.36
2018-12-17T15:19:19.726Z,7.42
2018-12-17T15:21:47.496Z,7.37
2018-12-17T15:24:15.267Z,7.36
2018-12-17T15:26:43.012Z,7.45
2018-12-17T15:29:10.865Z,7.42
2018-12-17T15:31:42.962Z,7.33
2018-12-17T15:34:08.463Z,7.30
2018-12-17T15:36:36.141Z,7.29
2018-12-17T15:39:04.992Z,7.30
2018-12-17T15:41:32.764Z,7.33
2018-12-17T15:44:00.493Z,7.36
2018-12-17T15:46:28.178Z,7.42
2018-12-17T15:48:55.926Z,7.47
2018-12-17T15:51:23.631Z,7.45
2018-12-17T15:53:51.308Z,7.50
2018-12-17T15:56:19.008Z,7.63
2018-12-17T15:58:46.851Z,7.63
2018-12-17T16:01:14.575Z,7.72
2018-12-17T16:03:42.314Z,7.63
2018-12-17T16:06:10.059Z,7.62
2018-12-17T16:08:37.814Z,7.58
2018-12-17T16:11:05.563Z,7.54
2018-12-17T16:13:33.249Z,7.53
2018-12-17T16:16:00.949Z,7.56
2018-12-17T16:18:28.668Z,7.58
2018-12-17T16:20:56.369Z,7.58
2018-12-17T16:23:24.136Z,7.59
2018-12-17T16:25:51.833Z,7.54
2018-12-17T16:28:19.545Z,7.51
2018-12-17T16:30:47.295Z,7.63
2018-12-17T16:33:15.001Z,7.68
2018-12-17T16:35:42.685Z,7.64
2018-12-17T16:38:11.860Z,7.53
2018-12-17T16:40:39.861Z,7.52
2018-12-17T16:43:07.563Z,7.59
2018-12-17T16:45:35.299Z,7.59
2018-12-17T16:48:03.084Z,7.48
2018-12-17T16:50:30.830Z,7.38
2018-12-17T16:52:58.575Z,7.40
2018-12-17T16:55:26.319Z,7.53
2018-12-17T16:57:54.044Z,7.42
2018-12-17T17:00:21.813Z,7.49
2018-12-17T17:02:49.511Z,7.37
2018-12-17T17:05:17.225Z,7.35
2018-12-17T17:07:44.944Z,7.35
2018-12-17T17:10:13.314Z,7.32
2018-12-17T17:12:41.258Z,7.30
2018-12-17T17:15:11.107Z,7.31
2018-12-17T17:17:39.356Z,7.31
2018-12-17T17:20:09.568Z,7.27
2018-12-17T17:22:38.097Z,7.37
2018-12-17T17:25:07.118Z,7.34
2018-12-17T17:27:35.175Z,7.40
2018-12-17T17:30:03.999Z,7.41
2018-12-17T17:32:31.772Z,7.36
2018-12-17T17:34:59.745Z,7.40
2018-12-17T17:37:27.604Z,7.40
2018-12-17T17:39:55.309Z,7.36
2018-12-17T17:42:23.133Z,7.32
2018-12-17T17:44:51.887Z,7.26
2018-12-17T17:47:19.565Z,7.27
2018-12-17T17:49:47.305Z,7.40
2018-12-17T17:52:15.016Z,7.40
2018-12-17T17:54:42.773Z,7.37
2018-12-17T17:57:10.507Z,7.40
2018-12-17T17:59:38.589Z,7.39
2018-12-17T18:02:06.781Z,7.48
2018-12-17T18:04:34.565Z,7.39
2018-12-17T18:07:02.315Z,7.33
2018-12-17T18:09:30.087Z,7.33
2018-12-17T18:11:57.836Z,7.32
2018-12-17T18:14:26.099Z,7.39
2018-12-17T18:16:53.833Z,7.52
2018-12-17T18:19:21.535Z,7.41
2018-12-17T18:21:49.285Z,7.40
2018-12-17T18:24:17.127Z,7.40
2018-12-17T18:26:44.928Z,7.43
2018-12-17T18:29:12.652Z,7.48
2018-12-17T18:31:40.433Z,7.50
2018-12-17T18:34:08.177Z,7.48
2018-12-17T18:36:36.006Z,7.53
2018-12-17T18:39:06.658Z,7.48
2018-12-17T18:41:34.398Z,7.56
2018-12-17T18:44:02.156Z,7.56
2018-12-17T18:46:29.896Z,7.50
2018-12-17T18:48:57.685Z,7.52
2018-12-17T18:51:25.449Z,7.52
2018-12-17T18:53:53.541Z,7.44
2018-12-17T18:56:21.264Z,7.52
2018-12-17T18:58:48.941Z,7.46
2018-12-17T19:01:16.760Z,7.53
2018-12-17T19:03:44.469Z,7.50
2018-12-17T19:06:12.172Z,7.55
2018-12-17T19:08:39.946Z,7.56
2018-12-17T19:11:07.718Z,7.56
2018-12-17T19:13:35.509Z,7.67
2018-12-17T19:16:03.444Z,7.60
2018-12-17T19:18:31.186Z,7.52
2018-12-17T19:20:59.143Z,7.47
2018-12-17T19:23:27.037Z,7.52
2018-12-17T19:25:54.803Z,7.61
2018-12-17T19:28:22.534Z,7.57
2018-12-17T19:30:50.384Z,7.45
2018-12-17T19:33:18.169Z,7.41
2018-12-17T19:35:46.049Z,7.44
2018-12-17T19:38:13.849Z,7.53
2018-12-17T19:40:41.602Z,7.56
2018-12-17T19:43:09.416Z,7.49
2018-12-17T19:45:37.131Z,7.56
2018-12-17T19:48:06.603Z,7.54
2018-12-17T19:50:34.612Z,7.53
2018-12-17T19:53:02.512Z,7.52
2018-12-17T19:55:30.350Z,7.43
2018-12-17T19:57:58.178Z,7.33
2018-12-17T20:00:25.864Z,7.28
2018-12-17T20:02:53.828Z,7.36
2018-12-17T20:05:21.606Z,7.24
2018-12-17T20:07:50.062Z,7.23
2018-12-17T20:10:23.268Z,7.02
2018-12-17T20:12:51.365Z,7.02
2018-12-17T20:15:19.119Z,6.85
2018-12-17T20:17:46.849Z,6.86
2018-12-17T20:20:14.634Z,6.85
2018-12-17T20:22:42.497Z,6.89
2018-12-17T20:25:10.626Z,6.85
2018-12-17T20:27:38.360Z,6.87
2018-12-17T20:30:08.219Z,6.70
2018-12-17T20:32:36.164Z,6.72
2018-12-17T20:35:04.623Z,6.63
2018-12-17T20:37:33.549Z,6.67
2018-12-17T20:40:01.284Z,6.74
2018-12-17T20:42:29.295Z,6.63
2018-12-17T20:44:58.121Z,6.59
2018-12-17T20:47:25.844Z,6.56
2018-12-17T20:49:53.556Z,6.55
2018-12-17T20:52:21.342Z,6.47
2018-12-17T20:54:49.086Z,6.40
2018-12-17T20:57:16.890Z,6.48
2018-12-17T20:59:44.606Z,6.40
2018-12-17T21:02:12.367Z,6.35
2018-12-17T21:04:40.093Z,6.25
2018-12-17T21:07:09.892Z,6.35
2018-12-17T21:09:38.182Z,6.34
2018-12-17T21:12:06.024Z,6.26
2018-12-17T21:14:35.381Z,6.29
2018-12-17T21:17:03.152Z,6.19
2018-12-17T21:19:30.965Z,6.23
2018-12-17T21:21:58.679Z,6.28
2018-12-17T21:24:28.566Z,6.27
2018-12-17T21:26:56.304Z,6.24
2018-12-17T21:29:24.052Z,6.27
2018-12-17T21:31:51.761Z,6.36
2018-12-17T21:34:19.532Z,6.46
2018-12-17T21:36:47.297Z,6.50
2018-12-17T21:39:15.020Z,6.47
2018-12-17T21:41:42.726Z,6.49
2018-12-17T21:44:10.453Z,6.35
2018-12-17T21:46:38.198Z,6.26
2018-12-17T21:49:05.987Z,6.19
2018-12-17T21:51:33.804Z,6.29
2018-12-17T21:54:01.794Z,6.34
2018-12-17T21:56:29.518Z,6.24
2018-12-17T21:58:57.192Z,6.20
2018-12-17T22:01:24.913Z,6.16
2018-12-17T22:03:52.693Z,6.12
2018-12-17T22:06:20.422Z,6.14
2018-12-17T22:08:48.225Z,6.18
2018-12-17T22:11:16.863Z,6.14
2018-12-17T22:13:44.618Z,6.20
2018-12-17T22:16:12.330Z,6.20
2018-12-17T22:18:40.070Z,6.12
2018-12-17T22:21:07.786Z,6.10
2018-12-17T22:23:36.202Z,6.18
2018-12-17T22:26:04.250Z,6.13
2018-12-17T22:28:32.021Z,6.14
2018-12-17T22:30:59.766Z,6.12
2018-12-17T22:33:28.268Z,6.09
2018-12-17T22:35:55.965Z,6.09
2018-12-17T22:38:23.749Z,6.14
2018-12-17T22:40:51.560Z,6.09
2018-12-17T22:43:19.376Z,6.14
2018-12-17T22:45:47.112Z,6.16
2018-12-17T22:48:14.861Z,6.15
2018-12-17T22:50:42.582Z,6.15
2018-12-17T22:53:10.446Z,6.22
2018-12-17T22:55:38.236Z,6.23
2018-12-17T22:58:05.953Z,6.20
2018-12-17T23:00:34.108Z,6.23
2018-12-17T23:03:02.453Z,6.19
2018-12-17T23:05:30.197Z,6.22
2018-12-17T23:07:57.929Z,6.30
2018-12-17T23:10:44.616Z,6.18
2018-12-17T23:13:23.353Z,6.16
2018-12-17T23:16:02.053Z,6.24
2018-12-17T23:18:28.613Z,6.23
2018-12-17T23:20:56.485Z,6.19
2018-12-17T23:23:24.359Z,6.11
2018-12-17T23:25:52.096Z,6.15
2018-12-17T23:28:19.809Z,6.12
2018-12-17T23:30:48.384Z,6.00
2018-12-17T23:33:16.110Z,6.02
2018-12-17T23:35:43.852Z,5.97
2018-12-17T23:38:11.631Z,5.97
2018-12-17T23:40:39.375Z,5.89
2018-12-17T23:43:07.264Z,5.95
2018-12-17T23:45:35.010Z,5.95
2018-12-17T23:48:02.796Z,5.98
2018-12-17T23:50:30.527Z,6.00
2018-12-17T23:52:58.261Z,6.01
2018-12-17T23:55:26.025Z,5.95
2018-12-17T23:57:53.730Z,5.82
